sensor_id;sensor_type;location;lat;lon;timestamp;temperature;humidity
19920;DHT22;10122;50.074;19.920;2023-05-17T00:00:52;14.50;99.90
19920;DHT22;10122;50.074;19.920;2023-05-17T00:03:18;14.60;99.90
19920;DHT22;10122;50.074;19.920;2023-05-17T00:05:43;14.60;99.90
19920;DHT22;10122;50.074;19.920;2023-05-17T00:08:09;14.60;99.90
19920;DHT22;10122;50.074;19.920;2023-05-17T00:10:35;14.70;99.90
19920;DHT22;10122;50.074;19.920;2023-05-17T00:13:01;14.70;99.90
19920;DHT22;10122;50.074;19.920;2023-05-17T00:15:28;14.70;99.90
19920;DHT22;10122;50.074;19.920;2023-05-17T00:17:54;14.70;99.90
19920;DHT22;10122;50.074;19.920;2023-05-17T00:20:20;14.70;99.90
19920;DHT22;10122;50.074;19.920;2023-05-17T00:22:46;14.70;99.90
19920;DHT22;10122;50.074;19.920;2023-05-17T00:25:12;14.70;99.90
19920;DHT22;10122;50.074;19.920;2023-05-17T00:27:37;14.80;99.90
19920;DHT22;10122;50.074;19.920;2023-05-17T00:30:04;14.70;99.90
19920;DHT22;10122;50.074;19.920;2023-05-17T00:32:30;14.80;99.90
19920;DHT22;10122;50.074;19.920;2023-05-17T00:34:56;14.70;99.90
19920;DHT22;10122;50.074;19.920;2023-05-17T00:37:22;14.80;99.90
19920;DHT22;10122;50.074;19.920;2023-05-17T00:39:47;14.80;99.90
19920;DHT22;10122;50.074;19.920;2023-05-17T00:42:13;14.80;99.90
19920;DHT22;10122;50.074;19.920;2023-05-17T00:44:39;14.70;99.90
19920;DHT22;10122;50.074;19.920;2023-05-17T00:47:05;14.80;99.90
19920;DHT22;10122;50.074;19.920;2023-05-17T00:49:31;14.70;99.90
19920;DHT22;10122;50.074;19.920;2023-05-17T00:51:57;14.70;99.90
19920;DHT22;10122;50.074;19.920;2023-05-17T00:54:24;14.70;99.90
19920;DHT22;10122;50.074;19.920;2023-05-17T00:56:51;14.70;99.90
19920;DHT22;10122;50.074;19.920;2023-05-17T00:59:17;14.70;99.90
19920;DHT22;10122;50.074;19.920;2023-05-17T01:01:44;14.70;99.90
19920;DHT22;10122;50.074;19.920;2023-05-17T01:04:10;14.60;99.90
19920;DHT22;10122;50.074;19.920;2023-05-17T01:06:36;14.60;99.90
19920;DHT22;10122;50.074;19.920;2023-05-17T01:09:03;14.60;99.90
19920;DHT22;10122;50.074;19.920;2023-05-17T01:11:55;14.60;99.90
19920;DHT22;10122;50.074;19.920;2023-05-17T01:17:12;14.60;99.90
19920;DHT22;10122;50.074;19.920;2023-05-17T01:20:04;14.60;99.90
19920;DHT22;10122;50.074;19.920;2023-05-17T01:23:06;14.50;99.90
19920;DHT22;10122;50.074;19.920;2023-05-17T01:28:07;14.60;99.90
19920;DHT22;10122;50.074;19.920;2023-05-17T01:30:36;14.60;99.90
19920;DHT22;10122;50.074;19.920;2023-05-17T01:33:03;14.60;99.90
19920;DHT22;10122;50.074;19.920;2023-05-17T01:35:30;14.60;99.90
19920;DHT22;10122;50.074;19.920;2023-05-17T01:37:56;14.60;99.90
19920;DHT22;10122;50.074;19.920;2023-05-17T01:40:22;14.60;99.90
19920;DHT22;10122;50.074;19.920;2023-05-17T01:42:56;14.60;99.90
19920;DHT22;10122;50.074;19.920;2023-05-17T01:45:33;14.50;99.90
19920;DHT22;10122;50.074;19.920;2023-05-17T01:50:35;14.50;99.90
19920;DHT22;10122;50.074;19.920;2023-05-17T01:53:19;14.50;99.90
19920;DHT22;10122;50.074;19.920;2023-05-17T01:55:49;14.50;99.90
19920;DHT22;10122;50.074;19.920;2023-05-17T01:58:17;14.50;99.90
19920;DHT22;10122;50.074;19.920;2023-05-17T02:00:48;14.50;99.90
19920;DHT22;10122;50.074;19.920;2023-05-17T02:03:20;14.40;99.90
19920;DHT22;10122;50.074;19.920;2023-05-17T02:05:46;14.40;99.90
19920;DHT22;10122;50.074;19.920;2023-05-17T02:08:12;14.40;99.90
19920;DHT22;10122;50.074;19.920;2023-05-17T02:10:38;14.30;99.90
19920;DHT22;10122;50.074;19.920;2023-05-17T02:13:04;14.30;99.90
19920;DHT22;10122;50.074;19.920;2023-05-17T02:15:30;14.30;99.90
19920;DHT22;10122;50.074;19.920;2023-05-17T02:17:56;14.30;99.90
19920;DHT22;10122;50.074;19.920;2023-05-17T02:20:21;14.30;99.90
19920;DHT22;10122;50.074;19.920;2023-05-17T02:22:47;14.30;99.90
19920;DHT22;10122;50.074;19.920;2023-05-17T02:25:13;14.30;99.90
19920;DHT22;10122;50.074;19.920;2023-05-17T02:27:39;14.30;99.90
19920;DHT22;10122;50.074;19.920;2023-05-17T02:30:05;14.20;99.90
19920;DHT22;10122;50.074;19.920;2023-05-17T02:32:31;14.30;99.90
19920;DHT22;10122;50.074;19.920;2023-05-17T02:34:57;14.30;99.90
19920;DHT22;10122;50.074;19.920;2023-05-17T02:37:23;14.20;99.90
19920;DHT22;10122;50.074;19.920;2023-05-17T02:39:49;14.20;99.90
19920;DHT22;10122;50.074;19.920;2023-05-17T02:42:15;14.20;99.90
19920;DHT22;10122;50.074;19.920;2023-05-17T02:44:41;14.20;99.90
19920;DHT22;10122;50.074;19.920;2023-05-17T02:47:07;14.30;99.90
19920;DHT22;10122;50.074;19.920;2023-05-17T02:49:32;14.20;99.90
19920;DHT22;10122;50.074;19.920;2023-05-17T02:51:58;14.20;99.90
19920;DHT22;10122;50.074;19.920;2023-05-17T02:54:25;14.20;99.90
19920;DHT22;10122;50.074;19.920;2023-05-17T02:56:51;14.20;99.90
19920;DHT22;10122;50.074;19.920;2023-05-17T02:59:16;14.10;99.90
19920;DHT22;10122;50.074;19.920;2023-05-17T03:01:42;14.10;99.90
19920;DHT22;10122;50.074;19.920;2023-05-17T03:04:08;14.00;99.90
19920;DHT22;10122;50.074;19.920;2023-05-17T03:06:33;14.00;99.90
19920;DHT22;10122;50.074;19.920;2023-05-17T03:08:59;14.00;99.90
19920;DHT22;10122;50.074;19.920;2023-05-17T03:11:25;14.00;99.90
19920;DHT22;10122;50.074;19.920;2023-05-17T03:13:51;13.90;99.90
19920;DHT22;10122;50.074;19.920;2023-05-17T03:16:17;13.90;99.90
19920;DHT22;10122;50.074;19.920;2023-05-17T03:18:43;13.90;99.90
19920;DHT22;10122;50.074;19.920;2023-05-17T03:21:09;13.90;99.90
19920;DHT22;10122;50.074;19.920;2023-05-17T03:23:35;13.90;99.90
19920;DHT22;10122;50.074;19.920;2023-05-17T03:26:00;13.90;99.90
19920;DHT22;10122;50.074;19.920;2023-05-17T03:28:26;13.80;99.90
19920;DHT22;10122;50.074;19.920;2023-05-17T03:30:52;13.80;99.90
19920;DHT22;10122;50.074;19.920;2023-05-17T03:33:18;13.80;99.90
19920;DHT22;10122;50.074;19.920;2023-05-17T03:35:44;13.80;99.90
19920;DHT22;10122;50.074;19.920;2023-05-17T03:38:11;13.90;99.90
19920;DHT22;10122;50.074;19.920;2023-05-17T03:40:37;13.90;99.90
19920;DHT22;10122;50.074;19.920;2023-05-17T03:43:03;13.90;99.90
19920;DHT22;10122;50.074;19.920;2023-05-17T03:45:28;13.90;99.90
19920;DHT22;10122;50.074;19.920;2023-05-17T03:47:54;13.90;99.90
19920;DHT22;10122;50.074;19.920;2023-05-17T03:50:20;13.80;99.90
19920;DHT22;10122;50.074;19.920;2023-05-17T03:52:46;13.80;99.90
19920;DHT22;10122;50.074;19.920;2023-05-17T03:55:12;13.80;99.90
19920;DHT22;10122;50.074;19.920;2023-05-17T03:57:37;13.80;99.90
19920;DHT22;10122;50.074;19.920;2023-05-17T04:00:03;13.80;99.90
19920;DHT22;10122;50.074;19.920;2023-05-17T04:02:35;13.80;99.90
19920;DHT22;10122;50.074;19.920;2023-05-17T04:05:01;13.80;99.90
19920;DHT22;10122;50.074;19.920;2023-05-17T04:07:27;13.80;99.90
19920;DHT22;10122;50.074;19.920;2023-05-17T04:09:56;13.80;99.90
19920;DHT22;10122;50.074;19.920;2023-05-17T04:12:27;13.80;99.90
19920;DHT22;10122;50.074;19.920;2023-05-17T04:14:53;13.80;99.90
19920;DHT22;10122;50.074;19.920;2023-05-17T04:17:18;13.80;99.90
19920;DHT22;10122;50.074;19.920;2023-05-17T04:19:44;13.80;99.90
19920;DHT22;10122;50.074;19.920;2023-05-17T04:22:10;13.70;99.90
19920;DHT22;10122;50.074;19.920;2023-05-17T04:24:35;13.70;99.90
19920;DHT22;10122;50.074;19.920;2023-05-17T04:27:01;13.70;99.90
19920;DHT22;10122;50.074;19.920;2023-05-17T04:29:28;13.80;99.90
19920;DHT22;10122;50.074;19.920;2023-05-17T04:31:55;13.80;99.90
19920;DHT22;10122;50.074;19.920;2023-05-17T04:34:21;13.80;99.90
19920;DHT22;10122;50.074;19.920;2023-05-17T04:36:48;13.80;99.90
19920;DHT22;10122;50.074;19.920;2023-05-17T04:39:14;13.80;99.90
19920;DHT22;10122;50.074;19.920;2023-05-17T04:41:39;13.70;99.90
19920;DHT22;10122;50.074;19.920;2023-05-17T04:44:05;13.70;99.90
19920;DHT22;10122;50.074;19.920;2023-05-17T04:46:32;13.70;99.90
19920;DHT22;10122;50.074;19.920;2023-05-17T04:48:57;13.70;99.90
19920;DHT22;10122;50.074;19.920;2023-05-17T04:51:23;13.70;99.90
19920;DHT22;10122;50.074;19.920;2023-05-17T04:53:49;13.70;99.90
19920;DHT22;10122;50.074;19.920;2023-05-17T04:56:15;13.70;99.90
19920;DHT22;10122;50.074;19.920;2023-05-17T04:58:40;13.80;99.90
19920;DHT22;10122;50.074;19.920;2023-05-17T05:01:06;13.80;99.90
19920;DHT22;10122;50.074;19.920;2023-05-17T05:03:32;13.90;99.90
19920;DHT22;10122;50.074;19.920;2023-05-17T05:05:57;13.90;99.90
19920;DHT22;10122;50.074;19.920;2023-05-17T05:08:23;13.90;99.90
19920;DHT22;10122;50.074;19.920;2023-05-17T05:10:49;13.90;99.90
19920;DHT22;10122;50.074;19.920;2023-05-17T05:13:16;13.80;99.90
19920;DHT22;10122;50.074;19.920;2023-05-17T05:15:41;13.80;99.90
19920;DHT22;10122;50.074;19.920;2023-05-17T05:18:07;13.90;99.90
19920;DHT22;10122;50.074;19.920;2023-05-17T05:20:33;13.80;99.90
19920;DHT22;10122;50.074;19.920;2023-05-17T05:22:58;13.80;99.90
19920;DHT22;10122;50.074;19.920;2023-05-17T05:25:26;13.80;99.90
19920;DHT22;10122;50.074;19.920;2023-05-17T05:27:51;13.90;99.90
19920;DHT22;10122;50.074;19.920;2023-05-17T05:30:17;13.90;99.90
19920;DHT22;10122;50.074;19.920;2023-05-17T05:32:47;13.90;99.90
19920;DHT22;10122;50.074;19.920;2023-05-17T05:35:14;13.90;99.90
19920;DHT22;10122;50.074;19.920;2023-05-17T05:37:43;13.90;99.90
19920;DHT22;10122;50.074;19.920;2023-05-17T05:40:10;13.90;99.90
19920;DHT22;10122;50.074;19.920;2023-05-17T05:42:36;13.90;99.90
19920;DHT22;10122;50.074;19.920;2023-05-17T05:45:02;13.90;99.90
19920;DHT22;10122;50.074;19.920;2023-05-17T05:47:28;14.00;99.90
19920;DHT22;10122;50.074;19.920;2023-05-17T05:49:53;14.00;99.90
19920;DHT22;10122;50.074;19.920;2023-05-17T05:52:19;14.00;99.90
19920;DHT22;10122;50.074;19.920;2023-05-17T05:54:45;14.00;99.90
19920;DHT22;10122;50.074;19.920;2023-05-17T05:57:11;14.00;99.90
19920;DHT22;10122;50.074;19.920;2023-05-17T05:59:36;14.00;99.90
19920;DHT22;10122;50.074;19.920;2023-05-17T06:02:02;14.00;99.90
19920;DHT22;10122;50.074;19.920;2023-05-17T06:04:28;14.10;99.90
19920;DHT22;10122;50.074;19.920;2023-05-17T06:06:54;14.10;99.90
19920;DHT22;10122;50.074;19.920;2023-05-17T06:09:20;14.10;99.90
19920;DHT22;10122;50.074;19.920;2023-05-17T06:11:45;14.10;99.90
19920;DHT22;10122;50.074;19.920;2023-05-17T06:14:11;14.00;99.90
19920;DHT22;10122;50.074;19.920;2023-05-17T06:16:37;14.10;99.90
19920;DHT22;10122;50.074;19.920;2023-05-17T06:19:03;14.10;99.90
19920;DHT22;10122;50.074;19.920;2023-05-17T06:21:29;14.10;99.90
19920;DHT22;10122;50.074;19.920;2023-05-17T06:23:56;14.00;99.90
19920;DHT22;10122;50.074;19.920;2023-05-17T06:26:21;14.10;99.90
19920;DHT22;10122;50.074;19.920;2023-05-17T06:28:47;14.10;99.90
19920;DHT22;10122;50.074;19.920;2023-05-17T06:31:13;14.10;99.90
19920;DHT22;10122;50.074;19.920;2023-05-17T06:33:39;14.10;99.90
19920;DHT22;10122;50.074;19.920;2023-05-17T06:36:05;14.10;99.90
19920;DHT22;10122;50.074;19.920;2023-05-17T06:38:31;14.20;99.90
19920;DHT22;10122;50.074;19.920;2023-05-17T06:40:56;14.20;99.90
19920;DHT22;10122;50.074;19.920;2023-05-17T06:43:23;14.20;99.90
19920;DHT22;10122;50.074;19.920;2023-05-17T06:45:49;14.20;99.90
19920;DHT22;10122;50.074;19.920;2023-05-17T06:48:15;14.20;99.90
19920;DHT22;10122;50.074;19.920;2023-05-17T06:50:41;14.20;99.90
19920;DHT22;10122;50.074;19.920;2023-05-17T06:53:06;14.20;99.90
19920;DHT22;10122;50.074;19.920;2023-05-17T06:55:32;14.20;99.90
19920;DHT22;10122;50.074;19.920;2023-05-17T06:57:58;14.20;99.90
19920;DHT22;10122;50.074;19.920;2023-05-17T07:00:24;14.20;99.90
19920;DHT22;10122;50.074;19.920;2023-05-17T07:02:50;14.20;99.90
19920;DHT22;10122;50.074;19.920;2023-05-17T07:05:16;14.20;99.90
19920;DHT22;10122;50.074;19.920;2023-05-17T07:07:42;14.20;99.90
19920;DHT22;10122;50.074;19.920;2023-05-17T07:10:08;14.30;99.90
19920;DHT22;10122;50.074;19.920;2023-05-17T07:12:33;14.30;99.90
19920;DHT22;10122;50.074;19.920;2023-05-17T07:14:59;14.30;99.90
19920;DHT22;10122;50.074;19.920;2023-05-17T07:17:25;14.30;99.90
19920;DHT22;10122;50.074;19.920;2023-05-17T07:19:50;14.30;99.90
19920;DHT22;10122;50.074;19.920;2023-05-17T07:22:17;14.30;99.90
19920;DHT22;10122;50.074;19.920;2023-05-17T07:24:43;14.30;99.90
19920;DHT22;10122;50.074;19.920;2023-05-17T07:27:09;14.30;99.90
19920;DHT22;10122;50.074;19.920;2023-05-17T07:29:35;14.30;99.90
19920;DHT22;10122;50.074;19.920;2023-05-17T07:32:01;14.20;99.90
19920;DHT22;10122;50.074;19.920;2023-05-17T07:34:26;14.20;99.90
19920;DHT22;10122;50.074;19.920;2023-05-17T07:36:52;14.20;99.90
19920;DHT22;10122;50.074;19.920;2023-05-17T07:39:18;14.20;99.90
19920;DHT22;10122;50.074;19.920;2023-05-17T07:41:43;14.20;99.90
19920;DHT22;10122;50.074;19.920;2023-05-17T07:44:09;14.30;99.90
19920;DHT22;10122;50.074;19.920;2023-05-17T07:46:35;14.30;99.90
19920;DHT22;10122;50.074;19.920;2023-05-17T07:49:01;14.30;99.90
19920;DHT22;10122;50.074;19.920;2023-05-17T07:51:27;14.30;99.90
19920;DHT22;10122;50.074;19.920;2023-05-17T07:53:53;14.30;99.90
19920;DHT22;10122;50.074;19.920;2023-05-17T07:56:19;14.30;99.90
19920;DHT22;10122;50.074;19.920;2023-05-17T07:58:44;14.20;99.90
19920;DHT22;10122;50.074;19.920;2023-05-17T08:01:10;14.20;99.90
19920;DHT22;10122;50.074;19.920;2023-05-17T08:03:36;14.20;99.90
19920;DHT22;10122;50.074;19.920;2023-05-17T08:06:02;14.20;99.90
19920;DHT22;10122;50.074;19.920;2023-05-17T08:08:28;14.20;99.90
19920;DHT22;10122;50.074;19.920;2023-05-17T08:10:54;14.20;99.90
19920;DHT22;10122;50.074;19.920;2023-05-17T08:13:20;14.20;99.90
19920;DHT22;10122;50.074;19.920;2023-05-17T08:15:45;14.20;99.90
19920;DHT22;10122;50.074;19.920;2023-05-17T08:18:11;14.20;99.90
19920;DHT22;10122;50.074;19.920;2023-05-17T08:20:37;14.20;99.90
19920;DHT22;10122;50.074;19.920;2023-05-17T08:23:02;14.30;99.90
19920;DHT22;10122;50.074;19.920;2023-05-17T08:25:28;14.20;99.90
19920;DHT22;10122;50.074;19.920;2023-05-17T08:27:54;14.30;99.90
19920;DHT22;10122;50.074;19.920;2023-05-17T08:30:20;14.30;99.90
19920;DHT22;10122;50.074;19.920;2023-05-17T08:32:46;14.30;99.90
19920;DHT22;10122;50.074;19.920;2023-05-17T08:35:12;14.30;99.90
19920;DHT22;10122;50.074;19.920;2023-05-17T08:37:37;14.30;99.90
19920;DHT22;10122;50.074;19.920;2023-05-17T08:40:04;14.30;99.90
19920;DHT22;10122;50.074;19.920;2023-05-17T08:42:31;14.30;99.90
19920;DHT22;10122;50.074;19.920;2023-05-17T08:44:58;14.30;99.90
19920;DHT22;10122;50.074;19.920;2023-05-17T08:47:26;14.30;99.90
19920;DHT22;10122;50.074;19.920;2023-05-17T08:49:58;14.30;99.90
19920;DHT22;10122;50.074;19.920;2023-05-17T08:52:30;14.30;99.90
19920;DHT22;10122;50.074;19.920;2023-05-17T08:54:59;14.30;99.90
19920;DHT22;10122;50.074;19.920;2023-05-17T08:57:27;14.30;99.90
19920;DHT22;10122;50.074;19.920;2023-05-17T08:59:54;14.30;99.90
19920;DHT22;10122;50.074;19.920;2023-05-17T09:02:23;14.30;99.90
19920;DHT22;10122;50.074;19.920;2023-05-17T09:04:50;14.30;99.90
19920;DHT22;10122;50.074;19.920;2023-05-17T09:07:23;14.30;99.90
19920;DHT22;10122;50.074;19.920;2023-05-17T09:09:52;14.20;99.90
19920;DHT22;10122;50.074;19.920;2023-05-17T09:12:19;14.20;99.90
19920;DHT22;10122;50.074;19.920;2023-05-17T09:14:45;14.30;99.90
19920;DHT22;10122;50.074;19.920;2023-05-17T09:17:20;14.30;99.90
19920;DHT22;10122;50.074;19.920;2023-05-17T09:19:46;14.20;99.90
19920;DHT22;10122;50.074;19.920;2023-05-17T09:22:21;14.20;99.90
19920;DHT22;10122;50.074;19.920;2023-05-17T09:24:48;14.20;99.90
19920;DHT22;10122;50.074;19.920;2023-05-17T09:27:16;14.10;99.90
19920;DHT22;10122;50.074;19.920;2023-05-17T09:29:44;14.10;99.90
19920;DHT22;10122;50.074;19.920;2023-05-17T09:32:17;14.10;99.90
19920;DHT22;10122;50.074;19.920;2023-05-17T09:34:45;14.10;99.90
19920;DHT22;10122;50.074;19.920;2023-05-17T09:37:13;14.10;99.90
19920;DHT22;10122;50.074;19.920;2023-05-17T09:39:40;14.20;99.90
19920;DHT22;10122;50.074;19.920;2023-05-17T09:42:06;14.10;99.90
19920;DHT22;10122;50.074;19.920;2023-05-17T09:44:53;14.10;99.90
19920;DHT22;10122;50.074;19.920;2023-05-17T09:47:23;14.10;99.90
19920;DHT22;10122;50.074;19.920;2023-05-17T09:49:49;14.10;99.90
19920;DHT22;10122;50.074;19.920;2023-05-17T09:52:19;14.10;99.90
19920;DHT22;10122;50.074;19.920;2023-05-17T09:54:53;14.10;99.90
19920;DHT22;10122;50.074;19.920;2023-05-17T09:57:19;14.10;99.90
19920;DHT22;10122;50.074;19.920;2023-05-17T09:59:46;14.10;99.90
19920;DHT22;10122;50.074;19.920;2023-05-17T10:02:30;14.10;99.90
19920;DHT22;10122;50.074;19.920;2023-05-17T10:05:03;14.10;99.90
19920;DHT22;10122;50.074;19.920;2023-05-17T10:07:33;14.00;99.90
19920;DHT22;10122;50.074;19.920;2023-05-17T10:09:59;14.00;99.90
19920;DHT22;10122;50.074;19.920;2023-05-17T10:12:27;14.00;99.90
19920;DHT22;10122;50.074;19.920;2023-05-17T10:14:57;14.00;99.90
19920;DHT22;10122;50.074;19.920;2023-05-17T10:17:26;14.00;99.90
19920;DHT22;10122;50.074;19.920;2023-05-17T10:19:54;14.00;99.90
19920;DHT22;10122;50.074;19.920;2023-05-17T10:22:21;14.00;99.90
19920;DHT22;10122;50.074;19.920;2023-05-17T10:24:47;14.00;99.90
19920;DHT22;10122;50.074;19.920;2023-05-17T10:27:14;14.00;99.90
19920;DHT22;10122;50.074;19.920;2023-05-17T10:29:41;14.00;99.90
19920;DHT22;10122;50.074;19.920;2023-05-17T10:32:07;14.00;99.90
19920;DHT22;10122;50.074;19.920;2023-05-17T10:34:37;14.00;99.90
19920;DHT22;10122;50.074;19.920;2023-05-17T10:37:03;14.00;99.90
19920;DHT22;10122;50.074;19.920;2023-05-17T10:39:30;13.90;99.90
19920;DHT22;10122;50.074;19.920;2023-05-17T10:42:00;14.00;99.90
19920;DHT22;10122;50.074;19.920;2023-05-17T10:44:27;14.00;99.90
19920;DHT22;10122;50.074;19.920;2023-05-17T10:46:56;14.00;99.90
19920;DHT22;10122;50.074;19.920;2023-05-17T10:49:29;14.00;99.90
19920;DHT22;10122;50.074;19.920;2023-05-17T10:51:59;14.00;99.90
19920;DHT22;10122;50.074;19.920;2023-05-17T10:54:36;14.00;99.90
19920;DHT22;10122;50.074;19.920;2023-05-17T10:57:05;14.00;99.90
19920;DHT22;10122;50.074;19.920;2023-05-17T10:59:31;14.00;99.90
19920;DHT22;10122;50.074;19.920;2023-05-17T11:02:06;13.90;99.90
19920;DHT22;10122;50.074;19.920;2023-05-17T11:04:33;13.90;99.90
19920;DHT22;10122;50.074;19.920;2023-05-17T11:10:09;13.90;99.90
19920;DHT22;10122;50.074;19.920;2023-05-17T11:12:34;13.90;99.90
19920;DHT22;10122;50.074;19.920;2023-05-17T11:15:04;13.80;99.90
19920;DHT22;10122;50.074;19.920;2023-05-17T11:23:01;13.80;99.90
19920;DHT22;10122;50.074;19.920;2023-05-17T11:25:36;13.80;99.90
19920;DHT22;10122;50.074;19.920;2023-05-17T11:28:19;13.80;99.90
19920;DHT22;10122;50.074;19.920;2023-05-17T11:30:46;13.80;99.90
19920;DHT22;10122;50.074;19.920;2023-05-17T11:33:16;13.70;99.90
19920;DHT22;10122;50.074;19.920;2023-05-17T11:35:43;13.70;99.90
19920;DHT22;10122;50.074;19.920;2023-05-17T11:38:26;13.70;99.90
19920;DHT22;10122;50.074;19.920;2023-05-17T11:40:55;13.70;99.90
19920;DHT22;10122;50.074;19.920;2023-05-17T11:43:24;13.70;99.90
19920;DHT22;10122;50.074;19.920;2023-05-17T11:45:57;13.70;99.90
19920;DHT22;10122;50.074;19.920;2023-05-17T11:48:25;13.70;99.90
19920;DHT22;10122;50.074;19.920;2023-05-17T11:50:53;13.70;99.90
19920;DHT22;10122;50.074;19.920;2023-05-17T11:53:20;13.70;99.90
19920;DHT22;10122;50.074;19.920;2023-05-17T11:55:48;13.70;99.90
19920;DHT22;10122;50.074;19.920;2023-05-17T11:58:18;13.80;99.90
19920;DHT22;10122;50.074;19.920;2023-05-17T12:00:44;13.80;99.90
19920;DHT22;10122;50.074;19.920;2023-05-17T12:05:42;13.80;99.90
19920;DHT22;10122;50.074;19.920;2023-05-17T12:08:08;13.80;99.90
19920;DHT22;10122;50.074;19.920;2023-05-17T12:10:33;13.70;99.90
19920;DHT22;10122;50.074;19.920;2023-05-17T12:12:59;13.80;99.90
19920;DHT22;10122;50.074;19.920;2023-05-17T12:15:27;13.80;99.90
19920;DHT22;10122;50.074;19.920;2023-05-17T12:17:54;13.80;99.90
19920;DHT22;10122;50.074;19.920;2023-05-17T12:20:20;13.80;99.90
19920;DHT22;10122;50.074;19.920;2023-05-17T12:22:52;13.80;99.90
19920;DHT22;10122;50.074;19.920;2023-05-17T12:25:22;13.80;99.90
19920;DHT22;10122;50.074;19.920;2023-05-17T12:28:13;13.90;99.90
19920;DHT22;10122;50.074;19.920;2023-05-17T12:30:39;14.00;99.90
19920;DHT22;10122;50.074;19.920;2023-05-17T12:33:06;14.00;99.90
19920;DHT22;10122;50.074;19.920;2023-05-17T12:35:32;14.00;99.90
19920;DHT22;10122;50.074;19.920;2023-05-17T12:37:59;13.90;99.90
19920;DHT22;10122;50.074;19.920;2023-05-17T12:40:25;13.90;99.90
19920;DHT22;10122;50.074;19.920;2023-05-17T12:43:00;13.90;99.90
19920;DHT22;10122;50.074;19.920;2023-05-17T12:45:27;13.80;99.90
19920;DHT22;10122;50.074;19.920;2023-05-17T12:47:52;13.80;99.90
19920;DHT22;10122;50.074;19.920;2023-05-17T12:50:28;13.80;99.90
19920;DHT22;10122;50.074;19.920;2023-05-17T12:52:55;13.70;99.90
19920;DHT22;10122;50.074;19.920;2023-05-17T12:55:21;13.70;99.90
19920;DHT22;10122;50.074;19.920;2023-05-17T12:57:53;13.70;99.90
19920;DHT22;10122;50.074;19.920;2023-05-17T13:00:20;13.70;99.90
19920;DHT22;10122;50.074;19.920;2023-05-17T13:02:46;13.70;99.90
19920;DHT22;10122;50.074;19.920;2023-05-17T13:05:21;13.60;99.90
19920;DHT22;10122;50.074;19.920;2023-05-17T13:07:47;13.60;99.90
19920;DHT22;10122;50.074;19.920;2023-05-17T13:10:25;13.60;99.90
19920;DHT22;10122;50.074;19.920;2023-05-17T13:12:58;13.60;99.90
19920;DHT22;10122;50.074;19.920;2023-05-17T13:15:32;13.50;99.90
19920;DHT22;10122;50.074;19.920;2023-05-17T13:17:58;13.50;99.90
19920;DHT22;10122;50.074;19.920;2023-05-17T13:20:26;13.50;99.90
19920;DHT22;10122;50.074;19.920;2023-05-17T13:22:51;13.50;99.90
19920;DHT22;10122;50.074;19.920;2023-05-17T13:25:17;13.50;99.90
19920;DHT22;10122;50.074;19.920;2023-05-17T13:27:44;13.50;99.90
19920;DHT22;10122;50.074;19.920;2023-05-17T13:30:13;13.40;99.90
19920;DHT22;10122;50.074;19.920;2023-05-17T13:32:39;13.30;99.90
19920;DHT22;10122;50.074;19.920;2023-05-17T13:35:06;13.30;99.90
19920;DHT22;10122;50.074;19.920;2023-05-17T13:37:31;13.30;99.90
19920;DHT22;10122;50.074;19.920;2023-05-17T13:39:57;13.30;99.90
19920;DHT22;10122;50.074;19.920;2023-05-17T13:42:23;13.30;99.90
19920;DHT22;10122;50.074;19.920;2023-05-17T13:44:48;13.20;99.90
19920;DHT22;10122;50.074;19.920;2023-05-17T13:47:14;13.20;99.90
19920;DHT22;10122;50.074;19.920;2023-05-17T13:49:40;13.20;99.90
19920;DHT22;10122;50.074;19.920;2023-05-17T13:52:06;13.10;99.90
19920;DHT22;10122;50.074;19.920;2023-05-17T13:54:37;13.10;99.90
19920;DHT22;10122;50.074;19.920;2023-05-17T13:57:05;13.10;99.90
19920;DHT22;10122;50.074;19.920;2023-05-17T13:59:31;13.10;99.90
19920;DHT22;10122;50.074;19.920;2023-05-17T14:01:57;13.00;99.90
19920;DHT22;10122;50.074;19.920;2023-05-17T14:04:24;13.00;99.90
19920;DHT22;10122;50.074;19.920;2023-05-17T14:06:49;12.90;99.90
19920;DHT22;10122;50.074;19.920;2023-05-17T14:09:16;12.90;99.90
19920;DHT22;10122;50.074;19.920;2023-05-17T14:11:41;12.80;99.90
19920;DHT22;10122;50.074;19.920;2023-05-17T14:14:07;12.80;99.90
19920;DHT22;10122;50.074;19.920;2023-05-17T14:16:33;12.80;99.90
19920;DHT22;10122;50.074;19.920;2023-05-17T14:18:59;12.80;99.90
19920;DHT22;10122;50.074;19.920;2023-05-17T14:21:25;12.80;99.90
19920;DHT22;10122;50.074;19.920;2023-05-17T14:23:51;12.70;99.90
19920;DHT22;10122;50.074;19.920;2023-05-17T14:26:17;12.80;99.90
19920;DHT22;10122;50.074;19.920;2023-05-17T14:28:42;12.80;99.90
19920;DHT22;10122;50.074;19.920;2023-05-17T14:31:08;12.80;99.90
19920;DHT22;10122;50.074;19.920;2023-05-17T14:33:35;12.80;99.90
19920;DHT22;10122;50.074;19.920;2023-05-17T14:36:01;12.80;99.90
19920;DHT22;10122;50.074;19.920;2023-05-17T14:38:28;12.70;99.90
19920;DHT22;10122;50.074;19.920;2023-05-17T14:40:54;12.80;99.90
19920;DHT22;10122;50.074;19.920;2023-05-17T14:43:20;12.80;99.90
19920;DHT22;10122;50.074;19.920;2023-05-17T14:45:46;12.80;99.90
19920;DHT22;10122;50.074;19.920;2023-05-17T14:48:11;12.80;99.90
19920;DHT22;10122;50.074;19.920;2023-05-17T14:50:37;12.80;99.90
19920;DHT22;10122;50.074;19.920;2023-05-17T14:53:03;12.70;99.90
19920;DHT22;10122;50.074;19.920;2023-05-17T14:55:28;12.70;99.90
19920;DHT22;10122;50.074;19.920;2023-05-17T14:57:55;12.70;99.90
19920;DHT22;10122;50.074;19.920;2023-05-17T15:00:22;12.70;99.90
19920;DHT22;10122;50.074;19.920;2023-05-17T15:02:48;12.70;99.90
19920;DHT22;10122;50.074;19.920;2023-05-17T15:05:14;12.70;99.90
19920;DHT22;10122;50.074;19.920;2023-05-17T15:07:39;12.60;99.90
19920;DHT22;10122;50.074;19.920;2023-05-17T15:10:06;12.60;99.90
19920;DHT22;10122;50.074;19.920;2023-05-17T15:12:32;12.60;99.90
19920;DHT22;10122;50.074;19.920;2023-05-17T15:14:58;12.60;99.90
19920;DHT22;10122;50.074;19.920;2023-05-17T15:17:24;12.60;99.90
19920;DHT22;10122;50.074;19.920;2023-05-17T15:19:49;12.60;99.90
19920;DHT22;10122;50.074;19.920;2023-05-17T15:22:15;12.60;99.90
19920;DHT22;10122;50.074;19.920;2023-05-17T15:24:43;12.60;99.90
19920;DHT22;10122;50.074;19.920;2023-05-17T15:27:08;12.60;99.90
19920;DHT22;10122;50.074;19.920;2023-05-17T15:29:37;12.60;99.90
19920;DHT22;10122;50.074;19.920;2023-05-17T15:32:05;12.50;99.90
19920;DHT22;10122;50.074;19.920;2023-05-17T15:34:31;12.60;99.90